createdAt,value
2019-03-20T00:01:13.810Z,7.75
2019-03-20T00:03:47.437Z,7.08
2019-03-20T00:06:20.637Z,9.20
2019-03-20T00:08:54.353Z,8.10
2019-03-20T00:11:27.959Z,8.28
2019-03-20T00:14:01.462Z,8.33
2019-03-20T00:16:34.847Z,8.90
2019-03-20T00:19:09.673Z,7.95
2019-03-20T00:21:42.999Z,7.45
2019-03-20T00:24:16.494Z,7.25
2019-03-20T00:26:49.561Z,7.37
2019-03-20T00:29:24.051Z,6.50
2019-03-20T00:31:57.490Z,7.05
2019-03-20T00:34:32.389Z,7.65
2019-03-20T00:37:05.539Z,7.60
2019-03-20T00:39:38.309Z,7.47
2019-03-20T00:42:12.179Z,7.22
2019-03-20T00:44:45.515Z,6.97
2019-03-20T00:47:18.885Z,6.62
2019-03-20T00:49:51.754Z,7.15
2019-03-20T00:52:24.737Z,7.20
2019-03-20T00:54:58.196Z,7.53
2019-03-20T00:57:30.967Z,7.65
2019-03-20T01:00:05.124Z,7.62
2019-03-20T01:02:38.449Z,7.87
2019-03-20T01:05:12.748Z,8.95
2019-03-20T01:07:46.092Z,7.17
2019-03-20T01:10:19.643Z,8.13
2019-03-20T01:12:52.703Z,8.23
2019-03-20T01:15:25.437Z,8.65
2019-03-20T01:17:59.004Z,8.20
2019-03-20T01:20:32.313Z,8.58
2019-03-20T01:23:06.299Z,8.50
2019-03-20T01:25:40.636Z,8.90
2019-03-20T01:28:15.060Z,8.65
2019-03-20T01:30:47.934Z,9.58
2019-03-20T01:33:20.233Z,9.80
2019-03-20T01:35:52.822Z,9.68
2019-03-20T01:38:25.456Z,9.28
2019-03-20T01:40:58.345Z,10.70
2019-03-20T01:43:31.337Z,10.55
2019-03-20T01:46:04.460Z,9.78
2019-03-20T01:48:37.342Z,10.20
2019-03-20T01:51:28.952Z,11.95
2019-03-20T01:54:01.843Z,10.50
2019-03-20T01:56:34.966Z,12.75
2019-03-20T01:59:07.484Z,11.12
2019-03-20T02:01:41.604Z,11.53
2019-03-20T02:04:14.658Z,13.00
2019-03-20T02:06:47.381Z,11.88
2019-03-20T02:09:20.917Z,10.88
2019-03-20T02:11:53.968Z,11.38
2019-03-20T02:14:27.078Z,13.30
2019-03-20T02:17:00.354Z,13.30
2019-03-20T02:19:33.355Z,13.60
2019-03-20T02:22:06.734Z,12.75
2019-03-20T02:24:40.474Z,14.23
2019-03-20T02:27:14.258Z,14.95
2019-03-20T02:29:47.792Z,12.90
2019-03-20T02:32:20.217Z,14.47
2019-03-20T02:34:53.628Z,13.55
2019-03-20T02:37:27.560Z,14.98
2019-03-20T02:40:02.291Z,15.58
2019-03-20T02:42:37.548Z,13.80
2019-03-20T02:45:11.803Z,14.07
2019-03-20T02:47:45.013Z,14.80
2019-03-20T02:50:19.497Z,15.58
2019-03-20T02:52:55.007Z,14.18
2019-03-20T02:55:28.943Z,14.38
2019-03-20T02:58:02.402Z,13.83
2019-03-20T03:00:35.400Z,14.45
2019-03-20T03:03:08.481Z,14.83
2019-03-20T03:05:42.160Z,13.90
2019-03-20T03:08:15.202Z,13.53
2019-03-20T03:10:48.699Z,15.05
2019-03-20T03:13:21.959Z,16.32
2019-03-20T03:15:55.640Z,14.70
2019-03-20T03:18:28.853Z,15.20
2019-03-20T03:21:02.181Z,14.10
2019-03-20T03:23:36.169Z,15.10
2019-03-20T03:26:09.702Z,15.28
2019-03-20T03:28:43.156Z,15.10
2019-03-20T18:11:07.956Z,9.23
2019-03-20T18:13:41.973Z,8.50
2019-03-20T18:16:15.409Z,8.28
2019-03-20T18:18:48.589Z,8.85
2019-03-20T18:21:22.105Z,8.40
2019-03-20T18:23:55.293Z,6.72
2019-03-20T18:26:29.319Z,8.70
2019-03-20T18:29:01.887Z,9.03
2019-03-20T18:31:34.701Z,10.28
2019-03-20T18:34:07.861Z,8.30
2019-03-20T18:36:41.493Z,7.35
2019-03-20T18:39:15.332Z,9.08
2019-03-20T18:41:57.406Z,7.80
2019-03-20T18:44:24.588Z,9.20
2019-03-20T18:46:57.731Z,9.08
2019-03-20T18:49:31.238Z,9.43
2019-03-20T18:52:04.614Z,9.40
2019-03-20T18:54:38.089Z,8.23
2019-03-20T18:57:11.112Z,8.73
2019-03-20T18:59:44.194Z,8.70
2019-03-20T19:02:17.735Z,7.87
2019-03-20T19:04:51.695Z,7.83
2019-03-20T19:07:25.027Z,8.25
2019-03-20T19:09:58.659Z,8.63
2019-03-20T19:12:31.778Z,9.25
2019-03-20T19:15:04.877Z,9.33
2019-03-20T19:17:38.314Z,9.00
2019-03-20T19:20:11.821Z,9.28
2019-03-20T19:22:45.387Z,8.95
2019-03-20T19:25:19.002Z,10.40
2019-03-20T19:27:52.575Z,18.07
2019-03-20T19:30:26.113Z,10.80
2019-03-20T19:32:59.735Z,9.98
2019-03-20T19:35:32.739Z,10.20
2019-03-20T19:38:08.440Z,10.13
2019-03-20T19:40:41.917Z,17.62
2019-03-20T19:43:14.579Z,12.47
2019-03-20T19:45:48.083Z,11.88
2019-03-20T19:48:21.620Z,10.93
2019-03-20T19:50:55.098Z,12.65
2019-03-20T19:53:28.161Z,12.82
2019-03-20T19:56:02.012Z,14.50
2019-03-20T19:58:35.136Z,13.32
2019-03-20T20:01:09.143Z,12.70
2019-03-20T20:03:42.179Z,12.30
2019-03-20T20:06:15.807Z,12.98
2019-03-20T20:08:49.769Z,14.00
2019-03-20T20:11:24.341Z,14.70
2019-03-20T20:13:56.926Z,14.33
2019-03-20T20:16:30.404Z,14.38
2019-03-20T20:19:04.301Z,14.83
2019-03-20T20:21:37.276Z,13.78
2019-03-20T20:24:10.530Z,15.83
2019-03-20T20:26:44.507Z,14.90
2019-03-20T20:29:17.813Z,14.93
2019-03-20T20:31:50.820Z,16.05
2019-03-20T20:34:24.780Z,15.38
2019-03-20T20:36:58.494Z,16.15
2019-03-20T20:39:31.926Z,15.63
2019-03-20T20:42:05.118Z,16.90
2019-03-20T20:44:38.182Z,16.02
2019-03-20T20:47:11.284Z,17.27
2019-03-20T20:49:44.413Z,17.10
2019-03-20T20:52:19.661Z,17.37
2019-03-20T20:54:53.089Z,17.55
2019-03-20T20:57:26.188Z,18.70
2019-03-20T20:59:59.819Z,17.85
2019-03-20T21:02:33.489Z,17.50
2019-03-20T21:05:06.596Z,17.57
2019-03-20T21:07:41.507Z,17.52
2019-03-20T21:10:14.387Z,19.50
2019-03-20T21:12:56.171Z,17.07
2019-03-20T21:15:37.383Z,19.17
2019-03-20T21:19:03.282Z,17.17
2019-03-20T21:21:43.860Z,18.52
2019-03-20T21:24:22.608Z,20.57
2019-03-20T21:27:40.003Z,19.07
2019-03-20T21:30:40.667Z,18.65
2019-03-20T21:33:39.240Z,18.77
2019-03-20T21:37:08.186Z,19.50
2019-03-20T21:39:42.033Z,18.92
2019-03-20T21:43:08.152Z,20.45
2019-03-20T21:46:31.890Z,40.92
2019-03-20T21:49:06.495Z,20.15
2019-03-20T21:51:40.176Z,20.65
2019-03-20T21:55:13.078Z,19.57
2019-03-20T21:57:52.924Z,20.48
2019-03-20T22:01:35.887Z,19.62
2019-03-20T22:04:09.909Z,19.55
2019-03-20T22:07:10.797Z,20.27
2019-03-20T22:10:37.311Z,20.70
2019-03-20T22:13:31.499Z,19.95
2019-03-20T22:17:07.077Z,20.43
2019-03-20T22:19:58.313Z,21.23
2019-03-20T22:23:27.627Z,20.75
2019-03-20T22:26:21.194Z,20.88
2019-03-20T22:29:24.387Z,19.40
2019-03-20T22:32:47.651Z,19.42
2019-03-20T22:35:38.237Z,21.80
2019-03-20T22:39:03.349Z,21.90
2019-03-20T22:42:19.144Z,22.45
2019-03-20T22:45:12.704Z,21.60
2019-03-20T22:48:29.435Z,21.60
2019-03-20T22:51:31.755Z,21.02
2019-03-20T22:54:41.015Z,21.80
2019-03-20T22:57:24.976Z,20.92
2019-03-20T22:59:58.671Z,22.17
2019-03-20T23:02:43.452Z,22.82
2019-03-20T23:05:17.344Z,21.97
2019-03-20T23:07:50.547Z,22.35
2019-03-20T23:10:24.448Z,22.07
2019-03-20T23:12:58.700Z,24.55
2019-03-20T23:15:32.673Z,28.70
2019-03-20T23:18:06.297Z,23.98
2019-03-20T23:20:39.978Z,24.95
2019-03-20T23:23:13.372Z,24.60
2019-03-20T23:25:47.007Z,24.82
2019-03-20T23:28:20.713Z,24.82
2019-03-20T23:30:55.165Z,25.23
2019-03-20T23:33:29.510Z,25.23
2019-03-20T23:36:03.864Z,25.48
2019-03-20T23:38:37.486Z,24.92
2019-03-20T23:41:11.745Z,25.57
2019-03-20T23:43:52.983Z,25.17
2019-03-20T23:46:21.822Z,25.65
2019-03-20T23:49:04.353Z,26.77
2019-03-20T23:51:37.954Z,26.35
2019-03-20T23:54:12.432Z,26.25
2019-03-20T23:56:46.855Z,27.15
2019-03-20T23:59:20.644Z,25.48
